Time;durP1;ratioP1;P1;durP2;ratioP2;P2;SDS_P1;SDS_P2;PMS_P1;PMS_P2;Temp;Humidity;BMP_temperature;BMP_pressure;BME280_temperature;BME280_humidity;BME280_pressure;Samples;Min_cycle;Max_cycle;Signal;HPM_P1;HPM_P2
2022/09/12 00:01:48;;;;;;;2.60;1.90;;;;;;;24.59;66.26;97647.44;5087055;28;20596;-32
2022/09/12 00:04:15;;;;;;;2.23;2.00;;;;;;;24.58;66.09;97648.28;5085914;28;20260;-32
2022/09/12 00:06:41;;;;;;;2.30;2.10;;;;;;;24.59;66.25;97644.88;5088422;28;20561;-32
2022/09/12 00:09:10;;;;;;;2.10;1.90;;;;;;;24.52;66.35;97634.44;5088689;28;20195;-32
2022/09/12 00:11:44;;;;;;;3.80;2.00;;;;;;;24.60;65.93;97638.88;5093387;28;20459;-32
2022/09/12 00:14:13;;;;;;;2.73;1.93;;;;;;;24.59;66.15;97639.75;5090418;28;20200;-32
2022/09/12 00:16:39;;;;;;;2.40;2.20;;;;;;;24.59;66.31;97639.75;5091088;28;20199;-32
2022/09/12 00:19:06;;;;;;;2.10;1.90;;;;;;;24.57;66.01;97630.28;5087643;28;20204;-32
2022/09/12 00:21:34;;;;;;;2.33;1.90;;;;;;;24.57;65.94;97632.84;5081727;28;20208;-32
2022/09/12 00:24:00;;;;;;;2.20;2.00;;;;;;;24.59;66.03;97638.84;5083952;28;20208;-32
2022/09/12 00:26:27;;;;;;;2.40;2.20;;;;;;;24.59;65.82;97641.44;5092664;28;20196;-32
2022/09/12 00:28:53;;;;;;;2.03;1.93;;;;;;;24.59;66.00;97639.75;5089987;28;20605;-32
2022/09/12 00:31:23;;;;;;;2.00;1.90;;;;;;;24.59;66.08;97633.72;5106204;22;20227;-23
2022/09/12 00:33:50;;;;;;;3.57;1.90;;;;;;;24.59;66.14;97638.84;5086592;28;20372;-24
2022/09/12 00:36:21;;;;;;;2.07;1.97;;;;;;;24.58;66.38;97634.56;5075893;28;20211;-25
2022/09/12 00:38:48;;;;;;;2.07;1.87;;;;;;;24.53;66.31;97615.63;5081646;28;20196;-24
2022/09/12 00:41:20;;;;;;;2.00;1.90;;;;;;;24.58;65.83;97625.16;5077355;28;20217;-24
2022/09/12 00:43:49;;;;;;;2.43;2.00;;;;;;;24.59;65.85;97624.31;5068287;28;20204;-24
2022/09/12 00:46:22;;;;;;;2.90;2.10;;;;;;;24.58;65.96;97622.59;5058858;28;20196;-23
2022/09/12 00:48:53;;;;;;;3.63;2.10;;;;;;;24.47;65.89;97598.41;5064826;28;20204;-23
2022/09/12 00:51:20;;;;;;;4.47;2.20;;;;;;;24.36;66.14;97584.47;5051949;28;20603;-24
2022/09/12 00:53:47;;;;;;;2.13;2.00;;;;;;;24.60;65.86;97622.63;5064958;28;20204;-25
2022/09/12 00:56:14;;;;;;;2.07;1.97;;;;;;;24.42;66.13;97588.88;5069481;28;20200;-24
2022/09/12 00:59:02;;;;;;;2.07;1.90;;;;;;;24.59;65.65;97619.19;5058471;28;20196;-23
2022/09/12 01:01:28;;;;;;;2.30;2.10;;;;;;;24.59;65.83;97614.03;5055434;28;20216;-24
2022/09/12 01:03:58;;;;;;;2.00;1.90;;;;;;;24.54;65.77;97607.09;5065536;28;20256;-25
2022/09/12 01:06:29;;;;;;;1.90;1.80;;;;;;;24.54;65.84;97604.53;5047795;28;20200;-24
2022/09/12 01:08:56;;;;;;;2.27;2.10;;;;;;;24.55;65.70;97607.13;5052600;28;20207;-23
2022/09/12 01:11:23;;;;;;;2.03;1.90;;;;;;;24.60;65.57;97617.50;5068086;28;20220;-24
2022/09/12 01:13:49;;;;;;;2.33;1.93;;;;;;;24.13;65.78;97531.78;5070143;28;20207;-24
2022/09/12 01:16:16;;;;;;;2.13;2.03;;;;;;;24.55;65.76;97604.56;5055815;28;20200;-24
2022/09/12 01:18:50;;;;;;;1.90;1.80;;;;;;;24.58;65.78;97607.19;5054982;28;20678;-24
2022/09/12 01:21:37;;;;;;;2.50;2.00;;;;;;;24.54;66.03;97600.22;5064120;28;20223;-24
2022/09/12 01:24:24;;;;;;;1.93;1.83;;;;;;;23.25;65.61;97376.91;5058528;28;20204;-24
2022/09/12 01:27:15;;;;;;;2.20;2.00;;;;;;;24.58;66.01;97607.19;5063981;28;20200;-24
2022/09/12 01:29:51;;;;;;;2.27;2.10;;;;;;;24.59;65.67;97605.44;5066795;28;20197;-23
2022/09/12 01:33:11;;;;;;;2.40;2.20;;;;;;;24.58;65.73;97607.19;5067976;28;20230;-23
2022/09/12 01:35:44;;;;;;;2.20;2.00;;;;;;;24.59;66.04;97608.91;4987843;28;20227;-23
2022/09/12 01:38:22;;;;;;;2.13;1.93;;;;;;;24.59;65.77;97605.44;4990841;28;20694;-24
2022/09/12 01:41:10;;;;;;;1.90;1.80;;;;;;;24.59;65.78;97608.03;5046588;28;20203;-24
2022/09/12 01:43:50;;;;;;;1.90;1.80;;;;;;;24.59;65.59;97600.31;5069305;28;20279;-24
2022/09/12 01:46:19;;;;;;;2.00;1.90;;;;;;;24.58;65.75;97602.03;5049837;28;20216;-23
2022/09/12 01:48:51;;;;;;;1.90;1.80;;;;;;;24.59;65.78;97602.88;5060259;28;20682;-23
2022/09/12 01:51:26;;;;;;;2.00;1.90;;;;;;;24.58;65.84;97591.75;5053853;28;20602;-24
2022/09/12 01:54:02;;;;;;;2.23;1.90;;;;;;;24.53;65.67;97587.34;5059084;28;20196;-24
2022/09/12 01:56:30;;;;;;;2.03;1.83;;;;;;;24.59;66.04;97596.06;5043782;28;20228;-24
2022/09/12 01:58:56;;;;;;;1.90;1.80;;;;;;;24.59;66.12;97582.31;5055198;28;20200;-24
2022/09/12 02:01:24;;;;;;;1.97;1.87;;;;;;;24.60;65.87;97584.06;5072671;28;20720;-23
2022/09/12 02:03:55;;;;;;;2.80;2.00;;;;;;;24.59;65.60;97585.78;5066279;28;20230;-24
2022/09/12 02:06:24;;;;;;;2.10;1.90;;;;;;;24.59;65.74;97590.91;5062183;28;20200;-24
2022/09/12 02:09:05;;;;;;;1.97;1.87;;;;;;;24.60;65.95;97578.94;5061329;28;20209;-24
2022/09/12 02:11:32;;;;;;;1.87;1.77;;;;;;;24.48;65.64;97560.72;5051037;28;20221;-23
2022/09/12 02:14:05;;;;;;;2.23;1.97;;;;;;;24.60;65.79;97581.50;5067565;28;20204;-24
2022/09/12 02:16:39;;;;;;;1.87;1.77;;;;;;;24.59;65.66;97580.63;5060871;28;20207;-24
2022/09/12 02:19:19;;;;;;;2.83;1.97;;;;;;;24.60;65.67;97577.22;5067449;28;20231;-24
2022/09/12 02:21:52;;;;;;;2.10;2.00;;;;;;;24.55;65.57;97567.69;5058722;28;20227;-24
2022/09/12 02:24:20;;;;;;;2.30;2.10;;;;;;;24.59;65.80;97572.03;5065029;28;20200;-24
2022/09/12 02:26:48;;;;;;;5.07;1.90;;;;;;;24.59;66.06;97569.47;5069397;28;20204;-24
2022/09/12 02:29:15;;;;;;;1.83;1.73;;;;;;;24.59;66.01;97569.47;5035234;28;20193;-24
2022/09/12 02:32:25;;;;;;;2.83;2.00;;;;;;;24.58;65.67;97568.63;5042119;28;20224;-24
2022/09/12 02:35:05;;;;;;;1.90;1.80;;;;;;;24.53;66.21;97551.38;5059601;28;20200;-23
2022/09/12 02:37:47;;;;;;;1.90;1.80;;;;;;;24.58;65.97;97563.50;5069267;28;20208;-25
2022/09/12 02:40:13;;;;;;;2.00;1.90;;;;;;;24.58;65.45;97554.91;5062129;28;20684;-24
2022/09/12 02:42:40;;;;;;;2.10;1.90;;;;;;;24.52;66.08;97540.25;5062713;28;20212;-23
2022/09/12 02:45:07;;;;;;;2.27;2.10;;;;;;;24.58;65.99;97549.78;5043397;28;20197;-24
2022/09/12 02:47:37;;;;;;;2.13;2.00;;;;;;;24.58;65.91;97555.78;5060555;28;20196;-24
2022/09/12 02:50:04;;;;;;;2.20;2.00;;;;;;;24.58;65.51;97560.94;5054395;28;20203;-24
2022/09/12 02:52:31;;;;;;;1.90;1.80;;;;;;;24.48;65.92;97532.47;5067289;28;20231;-24
2022/09/12 02:54:57;;;;;;;2.00;1.90;;;;;;;24.59;65.61;97551.50;5069940;28;20555;-22
2022/09/12 02:57:24;;;;;;;2.73;2.00;;;;;;;24.58;66.01;97548.06;5062161;28;20201;-25
2022/09/12 02:59:52;;;;;;;2.17;1.97;;;;;;;24.54;65.51;97540.28;5068999;28;20211;-24
2022/09/12 03:02:28;;;;;;;2.03;1.90;;;;;;;24.58;66.00;97550.66;5045475;28;20219;-24
2022/09/12 03:05:18;;;;;;;1.90;1.77;;;;;;;24.58;65.83;97553.22;5053329;28;20248;-24
2022/09/12 03:07:45;;;;;;;2.03;1.93;;;;;;;24.58;65.91;97554.91;5066187;28;20667;-24
2022/09/12 03:10:17;;;;;;;2.20;2.03;;;;;;;24.59;65.77;97556.63;5060412;28;20204;-23
2022/09/12 03:13:05;;;;;;;2.33;2.17;;;;;;;24.59;65.93;97554.94;5071217;28;20223;-24
2022/09/12 03:15:44;;;;;;;2.10;2.00;;;;;;;24.59;65.47;97551.50;5066630;28;20211;-24
2022/09/12 03:18:18;;;;;;;1.97;1.83;;;;;;;24.59;65.95;97548.91;5063043;28;20207;-24
2022/09/12 03:21:01;;;;;;;2.00;1.90;;;;;;;24.52;65.67;97545.41;5066290;28;20196;-24
2022/09/12 03:23:30;;;;;;;2.07;1.97;;;;;;;24.53;65.67;97534.28;5069163;28;20208;-25
2022/09/12 03:26:00;;;;;;;2.20;2.10;;;;;;;24.59;65.47;97544.66;5063526;28;20204;-24
2022/09/12 03:28:26;;;;;;;1.97;1.80;;;;;;;24.53;66.02;97541.09;5045364;28;20193;-24
2022/09/12 03:30:55;;;;;;;2.17;2.07;;;;;;;24.58;65.46;97553.22;5049704;28;20564;-24
2022/09/12 03:33:23;;;;;;;1.77;1.67;;;;;;;24.53;65.88;97541.97;5065446;28;20227;-23
2022/09/12 03:35:50;;;;;;;2.00;1.90;;;;;;;24.58;66.04;97548.06;5055352;28;20201;-24
2022/09/12 03:38:16;;;;;;;2.20;2.00;;;;;;;24.58;65.92;97548.06;5059693;28;20197;-24
2022/09/12 03:40:43;;;;;;;1.90;1.80;;;;;;;24.58;65.88;97550.66;5066794;28;20203;-23
2022/09/12 03:43:09;;;;;;;2.37;2.17;;;;;;;24.58;65.71;97547.19;5068724;28;20193;-24
2022/09/12 03:45:36;;;;;;;1.90;1.80;;;;;;;24.57;65.92;97540.34;5067759;28;20211;-24
2022/09/12 03:48:03;;;;;;;2.30;2.10;;;;;;;24.51;65.77;97537.66;5070039;28;20207;-23
2022/09/12 03:50:30;;;;;;;1.97;1.87;;;;;;;24.58;65.87;97552.34;5058557;28;20204;-24
2022/09/12 03:52:59;;;;;;;2.20;2.00;;;;;;;24.58;65.52;97555.78;5068238;28;20228;-25
2022/09/12 03:55:26;;;;;;;2.10;2.00;;;;;;;24.58;65.93;97550.66;5067677;28;20511;-24
2022/09/12 03:57:53;;;;;;;3.10;1.87;;;;;;;24.48;65.76;97537.59;5066015;28;20473;-24
2022/09/12 04:00:20;;;;;;;2.27;2.17;;;;;;;24.58;65.85;97555.78;5069274;28;20203;-25
2022/09/12 04:02:46;;;;;;;2.20;2.10;;;;;;;24.57;65.70;97541.19;5068179;28;20216;-25
2022/09/12 04:05:13;;;;;;;1.97;1.87;;;;;;;24.58;65.54;97550.66;5070335;28;20199;-23
2022/09/12 04:07:39;;;;;;;3.07;1.87;;;;;;;24.58;65.81;97539.50;5069921;28;20426;-24
2022/09/12 04:10:06;;;;;;;2.00;1.90;;;;;;;24.58;65.40;97545.50;5060572;28;20616;-24
2022/09/12 04:12:34;;;;;;;2.00;1.90;;;;;;;24.59;65.91;97554.06;5068434;28;20571;-24
2022/09/12 04:15:01;;;;;;;2.00;1.90;;;;;;;24.57;65.90;97560.91;5066315;28;20680;-23
2022/09/12 04:17:27;;;;;;;2.10;1.97;;;;;;;24.58;65.51;97555.78;5067864;28;20200;-24
2022/09/12 04:19:54;;;;;;;2.27;2.07;;;;;;;24.59;65.58;97551.50;5066701;28;20478;-25
2022/09/12 04:22:20;;;;;;;1.97;1.87;;;;;;;24.58;66.03;97550.66;5061738;28;20212;-24
2022/09/12 04:24:47;;;;;;;2.20;2.00;;;;;;;24.58;65.99;97557.47;5069107;28;20200;-24
2022/09/12 04:27:13;;;;;;;2.00;1.90;;;;;;;24.58;66.09;97560.94;5064589;28;20197;-23
2022/09/12 04:29:40;;;;;;;2.20;2.10;;;;;;;24.57;65.66;97560.91;5064573;28;20449;-24
2022/09/12 04:32:06;;;;;;;2.20;2.10;;;;;;;24.57;65.73;97551.47;5067080;28;20231;-24
2022/09/12 04:34:33;;;;;;;1.80;1.70;;;;;;;24.55;65.82;97547.16;5068893;28;20624;-24
2022/09/12 04:36:59;;;;;;;2.40;2.20;;;;;;;24.50;65.66;97541.94;5068749;28;20200;-24
2022/09/12 04:39:26;;;;;;;2.00;1.90;;;;;;;24.56;65.65;97552.31;5068919;28;20207;-24
2022/09/12 04:41:53;;;;;;;1.90;1.80;;;;;;;24.57;65.66;97553.19;5069161;28;20224;-24
2022/09/12 04:44:19;;;;;;;2.20;2.10;;;;;;;24.57;66.04;97550.63;5069618;28;20223;-24
2022/09/12 04:46:46;;;;;;;2.00;1.90;;;;;;;24.57;65.88;97560.91;5075207;28;20207;-24
2022/09/12 04:49:13;;;;;;;2.07;1.97;;;;;;;24.57;65.68;97553.19;5073706;28;20215;-24
2022/09/12 04:51:40;;;;;;;2.73;1.90;;;;;;;24.57;66.01;97558.31;5074926;28;20226;-24
2022/09/12 04:54:10;;;;;;;2.00;1.90;;;;;;;24.50;65.52;97541.94;5070183;28;20224;-24
2022/09/12 04:56:38;;;;;;;2.20;2.00;;;;;;;24.57;65.64;97548.88;5072032;28;20200;-23
2022/09/12 04:59:05;;;;;;;2.00;1.90;;;;;;;24.39;66.11;97522.88;5076733;28;20200;-24
2022/09/12 05:01:31;;;;;;;2.20;2.10;;;;;;;24.58;65.91;97558.34;5076409;28;20227;-24
2022/09/12 05:03:58;;;;;;;1.97;1.87;;;;;;;24.59;65.56;97551.50;5061099;28;20283;-24
2022/09/12 05:06:27;;;;;;;1.90;1.80;;;;;;;24.58;65.85;97554.91;5066180;28;20211;-24
2022/09/12 05:08:54;;;;;;;1.70;1.60;;;;;;;24.59;66.10;97562.66;5067697;28;20211;-24
2022/09/12 05:11:22;;;;;;;2.13;2.00;;;;;;;24.56;65.67;97552.31;5069189;28;20216;-23
2022/09/12 05:13:53;;;;;;;2.00;1.90;;;;;;;24.60;65.99;97559.22;5075140;28;20334;-24
2022/09/12 05:16:20;;;;;;;2.30;2.20;;;;;;;24.60;65.52;97560.94;5075284;28;20207;-24
2022/09/12 05:18:47;;;;;;;3.03;2.83;;;;;;;24.59;64.12;97557.50;5070242;28;20204;-24
2022/09/12 05:21:15;;;;;;;2.93;2.73;;;;;;;24.60;62.77;97568.66;5073830;28;20219;-24
2022/09/12 05:23:42;;;;;;;2.73;2.50;;;;;;;24.58;61.13;97570.31;5070632;28;20196;-23
2022/09/12 05:26:11;;;;;;;2.60;2.40;;;;;;;24.59;60.41;97562.66;5070972;28;20200;-24
2022/09/12 05:28:37;;;;;;;2.50;2.40;;;;;;;24.59;59.69;97560.06;5058838;28;20223;-24
2022/09/12 05:31:11;;;;;;;2.63;2.43;;;;;;;24.58;59.42;97568.63;5068641;28;20723;-24
2022/09/12 05:33:39;;;;;;;2.70;2.50;;;;;;;24.55;58.86;97567.69;5075528;28;20215;-24
2022/09/12 05:36:08;;;;;;;2.87;2.33;;;;;;;24.59;58.97;97572.91;5070729;28;20196;-25
2022/09/12 05:38:35;;;;;;;2.70;2.50;;;;;;;24.52;59.23;97571.09;5073153;28;20283;-24
2022/09/12 05:41:06;;;;;;;2.73;2.47;;;;;;;24.58;58.50;97583.19;5072856;28;20302;-24
2022/09/12 05:43:33;;;;;;;2.60;2.40;;;;;;;24.58;58.39;97585.75;5071249;28;20192;-24
2022/09/12 05:46:03;;;;;;;2.90;2.70;;;;;;;24.57;57.87;97592.56;5073835;28;20204;-24
2022/09/12 05:48:29;;;;;;;2.67;2.47;;;;;;;24.57;57.93;97581.44;5071804;28;20188;-24
2022/09/12 05:51:01;;;;;;;3.17;2.97;;;;;;;24.56;57.84;97588.28;5066680;28;20243;-24
2022/09/12 05:53:29;;;;;;;3.13;2.73;;;;;;;24.56;57.72;97593.44;5074304;28;20207;-23
2022/09/12 05:56:02;;;;;;;2.83;2.63;;;;;;;24.56;58.42;97598.56;5064576;28;20682;-25
2022/09/12 05:58:29;;;;;;;3.13;2.83;;;;;;;24.56;57.55;97597.69;5066430;28;20201;-24
2022/09/12 06:01:00;;;;;;;2.90;2.70;;;;;;;24.56;57.18;97592.56;5071730;28;20227;-23
2022/09/12 06:03:27;;;;;;;3.10;2.90;;;;;;;24.50;57.48;97583.03;5071782;28;20627;-23
2022/09/12 06:05:53;;;;;;;3.43;3.00;;;;;;;24.55;56.83;97595.97;5066212;28;20200;-25
2022/09/12 06:08:20;;;;;;;4.27;3.27;;;;;;;24.55;56.95;97595.97;5071592;28;20200;-24
2022/09/12 06:10:48;;;;;;;4.93;3.30;;;;;;;24.53;56.54;97597.63;5068223;28;20239;-24
2022/09/12 06:13:14;;;;;;;6.70;3.43;;;;;;;24.54;57.34;97596.81;5070054;28;20212;-23
2022/09/12 06:15:41;;;;;;;3.87;3.27;;;;;;;24.53;57.82;97592.50;5053208;28;20200;-24
2022/09/12 06:18:08;;;;;;;3.20;2.90;;;;;;;24.53;57.89;97593.38;5055400;28;20201;-24
2022/09/12 06:20:35;;;;;;;4.70;3.10;;;;;;;24.53;58.38;97584.78;5053920;28;20207;-24
2022/09/12 06:23:02;;;;;;;3.33;2.80;;;;;;;24.53;58.93;97589.94;5060318;28;20189;-24
2022/09/12 06:25:28;;;;;;;2.90;2.70;;;;;;;24.53;59.30;97592.50;5062356;28;20573;-24
2022/09/12 06:27:55;;;;;;;4.57;2.73;;;;;;;24.53;59.51;97597.63;5054086;28;20201;-24
2022/09/12 06:30:21;;;;;;;3.30;3.00;;;;;;;24.53;59.88;97598.50;5057868;28;20200;-23
2022/09/12 06:32:50;;;;;;;3.43;2.80;;;;;;;24.54;60.01;97602.78;5090737;22;20732;-31
2022/09/12 06:35:17;;;;;;;2.83;2.63;;;;;;;24.54;60.00;97595.09;5082719;28;20196;-31
2022/09/12 06:37:44;;;;;;;3.17;2.80;;;;;;;24.55;60.48;97595.97;5079404;28;20674;-31
2022/09/12 06:40:11;;;;;;;2.80;2.60;;;;;;;24.55;60.27;97598.53;5082543;28;20435;-32
2022/09/12 06:42:37;;;;;;;2.67;2.47;;;;;;;24.56;60.75;97598.56;5070166;28;20212;-31
2022/09/12 06:45:04;;;;;;;2.60;2.40;;;;;;;24.56;61.03;97590.84;5071167;28;20200;-31
2022/09/12 06:47:31;;;;;;;3.10;2.90;;;;;;;24.57;60.44;97582.28;5069981;28;20196;-31
2022/09/12 06:49:58;;;;;;;3.10;2.80;;;;;;;24.57;60.24;97594.31;5063945;28;20192;-32
2022/09/12 06:52:25;;;;;;;4.10;2.90;;;;;;;24.58;59.60;97596.03;5067894;28;20243;-31
2022/09/12 06:54:51;;;;;;;3.90;2.80;;;;;;;24.57;59.90;97587.44;5071642;28;20232;-31
2022/09/12 06:57:18;;;;;;;3.10;2.90;;;;;;;24.57;60.07;97590.00;5064383;28;20193;-31
2022/09/12 06:59:44;;;;;;;5.13;3.03;;;;;;;24.58;60.40;97585.75;5062843;28;20678;-31
2022/09/12 07:02:11;;;;;;;2.60;2.40;;;;;;;24.59;60.95;97595.16;5059285;28;20213;-31
2022/09/12 07:04:38;;;;;;;2.87;2.67;;;;;;;24.59;60.89;97598.63;5067757;28;20284;-32
2022/09/12 07:07:04;;;;;;;2.80;2.60;;;;;;;24.59;61.12;97600.31;5066616;28;20291;-31
2022/09/12 07:09:31;;;;;;;4.03;2.47;;;;;;;24.60;60.95;97599.50;5058728;28;20474;-31
2022/09/12 07:11:57;;;;;;;2.30;2.10;;;;;;;24.59;61.63;97601.19;5057400;28;20228;-31
2022/09/12 07:14:24;;;;;;;2.70;2.50;;;;;;;24.60;61.23;97602.06;5064012;28;20228;-31
2022/09/12 07:16:51;;;;;;;3.00;2.80;;;;;;;24.57;61.50;97595.16;5065605;28;20196;-31
2022/09/12 07:19:18;;;;;;;2.50;2.30;;;;;;;24.60;61.80;97597.78;5062554;28;20291;-31
2022/09/12 07:21:44;;;;;;;3.03;2.73;;;;;;;24.61;61.93;97598.66;5064701;28;20588;-30
2022/09/12 07:24:11;;;;;;;2.67;2.47;;;;;;;24.59;61.79;97593.47;5069264;28;20192;-31
2022/09/12 07:26:38;;;;;;;2.90;2.70;;;;;;;24.60;61.83;97592.63;5057910;28;20200;-31
2022/09/12 07:29:05;;;;;;;4.17;2.37;;;;;;;24.62;61.53;97592.66;5063089;28;20578;-32
2022/09/12 07:31:52;;;;;;;2.50;2.40;;;;;;;24.61;61.60;97591.81;5063035;28;20231;-32
2022/09/12 07:34:18;;;;;;;2.63;2.43;;;;;;;24.63;61.75;97596.97;5067292;28;20223;-32
2022/09/12 07:36:45;;;;;;;2.97;2.67;;;;;;;24.62;62.06;97597.78;5062729;28;20196;-32
2022/09/12 07:39:11;;;;;;;2.43;2.20;;;;;;;24.64;62.08;97596.13;5064528;28;20674;-31
2022/09/12 07:41:38;;;;;;;3.13;2.60;;;;;;;24.63;61.93;97594.41;5067623;28;20220;-31
2022/09/12 07:44:06;;;;;;;2.63;2.43;;;;;;;24.63;62.09;97600.41;5067892;28;20193;-31
2022/09/12 07:46:32;;;;;;;3.03;2.77;;;;;;;24.63;61.89;97602.13;5062270;28;20196;-31
2022/09/12 07:48:59;;;;;;;2.67;2.47;;;;;;;24.63;62.25;97595.25;5066812;28;20574;-31
2022/09/12 07:51:28;;;;;;;2.60;2.40;;;;;;;24.64;62.51;97603.84;5064059;28;20216;-32
2022/09/12 07:53:55;;;;;;;3.60;2.70;;;;;;;24.63;62.23;97600.41;5066524;28;20223;-31
2022/09/12 07:56:22;;;;;;;3.57;2.70;;;;;;;24.61;62.29;97590.94;5059183;28;20684;-32
2022/09/12 07:58:55;;;;;;;2.70;2.50;;;;;;;24.64;62.03;97596.13;5060350;28;20290;-32
2022/09/12 08:01:22;;;;;;;2.83;2.63;;;;;;;24.64;62.04;97599.59;5066573;28;20212;-32
2022/09/12 08:03:53;;;;;;;2.73;2.53;;;;;;;24.64;62.68;97602.16;5066907;28;20194;-31
2022/09/12 08:06:22;;;;;;;2.70;2.50;;;;;;;24.65;62.65;97597.88;5051727;28;20734;-31
2022/09/12 08:08:50;;;;;;;2.70;2.50;;;;;;;24.59;62.43;97596.06;5068282;28;20203;-31
2022/09/12 08:11:18;;;;;;;2.67;2.47;;;;;;;24.65;62.07;97605.59;5058347;28;20224;-31
2022/09/12 08:13:44;;;;;;;3.00;2.73;;;;;;;24.65;62.58;97609.03;5067514;28;20699;-31
2022/09/12 08:16:13;;;;;;;2.63;2.43;;;;;;;24.64;62.22;97615.00;5067441;28;20259;-32
2022/09/12 08:18:40;;;;;;;3.00;2.70;;;;;;;24.64;62.37;97617.56;5069810;28;20197;-31
2022/09/12 08:21:15;;;;;;;2.77;2.57;;;;;;;24.64;62.22;97612.44;5061014;28;20197;-32
2022/09/12 08:23:42;;;;;;;2.60;2.40;;;;;;;24.64;62.32;97611.56;5059991;28;20203;-32
2022/09/12 08:26:08;;;;;;;3.33;2.67;;;;;;;24.61;62.91;97612.38;5067767;28;20207;-31
2022/09/12 08:28:35;;;;;;;2.50;2.30;;;;;;;24.63;62.77;97615.81;5063539;28;20196;-31
2022/09/12 08:31:10;;;;;;;2.87;2.60;;;;;;;24.58;62.66;97607.19;5064479;28;20784;-31
2022/09/12 08:33:36;;;;;;;2.97;2.77;;;;;;;24.63;62.73;97613.25;5065820;28;20246;-32
2022/09/12 08:36:03;;;;;;;2.70;2.50;;;;;;;24.64;63.00;97615.00;5061433;28;20208;-31
2022/09/12 08:38:31;;;;;;;2.77;2.57;;;;;;;24.64;62.65;97615.00;5068605;28;20203;-31
2022/09/12 08:41:29;;;;;;;2.63;2.43;;;;;;;24.63;62.60;97615.81;5065256;28;20211;-32
2022/09/12 08:44:15;;;;;;;3.03;2.60;;;;;;;24.64;62.83;97619.25;5069581;28;20202;-32
2022/09/12 08:46:44;;;;;;;2.90;2.70;;;;;;;24.64;62.88;97616.69;5058009;28;20196;-31
2022/09/12 08:49:18;;;;;;;2.53;2.33;;;;;;;24.64;62.81;97621.84;5059184;28;20201;-32
2022/09/12 08:51:44;;;;;;;2.27;2.10;;;;;;;24.63;62.93;97618.38;5049944;28;20243;-32
2022/09/12 08:54:27;;;;;;;2.93;2.73;;;;;;;24.63;62.63;97608.09;5067969;28;20592;-32
2022/09/12 08:56:57;;;;;;;2.80;2.60;;;;;;;24.64;62.97;97616.69;5066524;28;20294;-31
2022/09/12 08:59:24;;;;;;;2.70;2.50;;;;;;;24.59;62.64;97606.31;5068353;28;20219;-31
2022/09/12 09:01:52;;;;;;;3.07;2.80;;;;;;;24.63;63.12;97605.53;5065564;28;20231;-31
2022/09/12 09:04:42;;;;;;;3.20;2.90;;;;;;;24.64;62.74;97619.25;5063863;28;20189;-32
2022/09/12 09:07:37;;;;;;;2.60;2.40;;;;;;;24.64;62.76;97614.13;5057643;28;20211;-32
2022/09/12 09:10:16;;;;;;;3.70;2.53;;;;;;;24.64;62.77;97614.13;5065198;28;20691;-32
2022/09/12 09:12:59;;;;;;;2.73;2.53;;;;;;;24.63;63.23;97609.84;5066496;28;20215;-31
2022/09/12 09:15:39;;;;;;;3.20;2.90;;;;;;;24.47;62.97;97579.53;5061401;28;20223;-32
2022/09/12 09:18:17;;;;;;;2.63;2.40;;;;;;;24.60;62.97;97605.47;5047126;28;20197;-31
2022/09/12 09:21:02;;;;;;;2.80;2.60;;;;;;;24.63;62.84;97617.53;5038865;28;20200;-31
2022/09/12 09:23:35;;;;;;;2.60;2.40;;;;;;;23.65;63.04;97445.25;5050893;28;20240;-31
2022/09/12 09:26:13;;;;;;;2.70;2.50;;;;;;;24.63;63.10;97609.84;5047177;28;20208;-32
2022/09/12 09:28:50;;;;;;;3.03;2.80;;;;;;;24.63;63.00;97605.53;5058306;28;20233;-31
2022/09/12 09:31:18;;;;;;;2.90;2.70;;;;;;;24.62;63.16;97606.38;5056090;28;20220;-31
2022/09/12 09:33:50;;;;;;;2.90;2.70;;;;;;;24.59;63.29;97593.47;5055270;28;20248;-32
2022/09/12 09:36:38;;;;;;;3.00;2.80;;;;;;;24.63;63.47;97604.69;5053464;28;20587;-32
2022/09/12 09:39:28;;;;;;;3.00;2.80;;;;;;;24.64;63.00;97602.16;5052208;28;20614;-31
2022/09/12 09:41:55;;;;;;;3.10;2.90;;;;;;;24.64;62.95;97598.69;5052889;28;20224;-31
2022/09/12 09:44:21;;;;;;;2.87;2.67;;;;;;;24.63;62.96;97602.13;5057970;28;20910;-32
2022/09/12 09:46:49;;;;;;;3.30;3.00;;;;;;;24.64;62.92;97598.69;5057330;28;20201;-31
2022/09/12 09:49:15;;;;;;;3.30;2.87;;;;;;;24.64;63.47;97593.56;5038052;28;20577;-32
2022/09/12 09:51:42;;;;;;;2.87;2.67;;;;;;;24.63;63.17;97590.13;5055389;28;20599;-31
2022/09/12 09:54:24;;;;;;;2.90;2.70;;;;;;;24.64;62.99;97585.84;5037759;28;20225;-31
2022/09/12 09:56:51;;;;;;;3.33;3.00;;;;;;;24.64;63.13;97585.84;5055497;28;20220;-32
2022/09/12 09:59:31;;;;;;;3.30;2.83;;;;;;;24.64;63.33;97588.44;5054048;28;20204;-31
2022/09/12 10:02:02;;;;;;;3.13;2.83;;;;;;;24.64;63.06;97578.16;5057890;28;20224;-31
2022/09/12 10:04:30;;;;;;;2.63;2.43;;;;;;;24.59;63.50;97569.47;5061492;28;20188;-31
2022/09/12 10:06:58;;;;;;;3.10;2.90;;;;;;;24.64;63.46;97580.72;5057773;28;20200;-31
2022/09/12 10:09:32;;;;;;;2.93;2.73;;;;;;;24.65;63.03;97574.75;5067336;28;20196;-32
2022/09/12 10:12:00;;;;;;;2.93;2.73;;;;;;;24.64;63.30;97583.28;5065628;28;20220;-31
2022/09/12 10:14:39;;;;;;;2.60;2.40;;;;;;;24.63;63.49;97579.84;5070955;28;20610;-31
2022/09/12 10:17:24;;;;;;;3.00;2.70;;;;;;;24.63;63.02;97573.84;5056974;28;20215;-31
2022/09/12 10:19:52;;;;;;;2.73;2.53;;;;;;;24.64;63.64;97573.88;5067758;28;20211;-32
2022/09/12 10:22:38;;;;;;;3.30;3.00;;;;;;;24.60;63.07;97561.78;5073039;28;20562;-32
2022/09/12 10:25:05;;;;;;;2.90;2.70;;;;;;;24.64;63.54;97570.44;5066522;28;20201;-31
2022/09/12 10:27:32;;;;;;;2.90;2.60;;;;;;;24.63;63.58;97556.72;5061098;28;20203;-32
2022/09/12 10:29:58;;;;;;;3.00;2.80;;;;;;;24.64;63.24;97557.59;5067930;28;20204;-32
2022/09/12 10:32:45;;;;;;;2.90;2.60;;;;;;;24.64;63.48;97565.28;5059546;28;20607;-32
2022/09/12 10:35:21;;;;;;;3.60;3.10;;;;;;;24.63;63.50;97554.13;5065352;28;20580;-31
2022/09/12 10:38:01;;;;;;;4.97;2.87;;;;;;;24.60;63.37;97558.38;5058209;28;20200;-31
2022/09/12 10:40:36;;;;;;;2.80;2.60;;;;;;;24.65;63.36;97559.34;5069516;28;20330;-31
2022/09/12 10:43:15;;;;;;;2.80;2.60;;;;;;;24.64;63.49;97578.16;5066474;28;20220;-32
2022/09/12 10:45:42;;;;;;;2.70;2.50;;;;;;;24.65;63.55;97560.22;5064556;28;20678;-31
2022/09/12 10:48:28;;;;;;;3.07;2.83;;;;;;;24.65;63.31;97557.66;5065787;28;20224;-32
2022/09/12 10:50:55;;;;;;;2.93;2.70;;;;;;;24.65;63.74;97557.66;5069624;28;20204;-31
2022/09/12 10:53:24;;;;;;;2.90;2.70;;;;;;;24.65;63.36;97555.06;5049128;28;20700;-31
2022/09/12 10:56:05;;;;;;;3.10;2.80;;;;;;;24.65;63.63;97551.63;5070987;28;20223;-31
2022/09/12 10:58:50;;;;;;;2.90;2.70;;;;;;;24.65;63.53;97538.78;5068037;28;20192;-31
2022/09/12 11:01:36;;;;;;;5.37;2.63;;;;;;;24.66;63.62;97540.53;5067992;28;20212;-31
2022/09/12 11:04:23;;;;;;;2.77;2.50;;;;;;;24.65;63.92;97542.22;5062990;28;20193;-31
2022/09/12 11:07:09;;;;;;;2.77;2.57;;;;;;;24.66;63.94;97540.53;5069428;28;21622;-32
2022/09/12 11:09:42;;;;;;;3.00;2.70;;;;;;;24.66;63.77;97532.81;5067799;28;20677;-31
2022/09/12 11:12:17;;;;;;;3.77;2.80;;;;;;;24.66;63.70;97527.69;5068178;28;20694;-31
2022/09/12 11:14:59;;;;;;;3.50;2.50;;;;;;;24.65;63.84;97531.94;5062521;28;20223;-31
2022/09/12 11:17:32;;;;;;;2.70;2.50;;;;;;;24.64;63.76;97529.31;5062522;28;20196;-31
2022/09/12 11:20:08;;;;;;;3.87;3.03;;;;;;;24.66;63.84;97528.53;5069366;28;20200;-31
2022/09/12 11:22:38;;;;;;;2.93;2.37;;;;;;;24.53;64.03;97511.16;5065079;28;20230;-30
2022/09/12 11:25:30;;;;;;;3.00;2.70;;;;;;;24.66;63.87;97536.22;5070610;28;20199;-32
2022/09/12 11:28:05;;;;;;;2.67;2.47;;;;;;;24.66;63.51;97532.81;5071648;28;20620;-31
2022/09/12 11:30:56;;;;;;;2.90;2.70;;;;;;;24.60;63.66;97524.97;5068091;28;20195;-31
2022/09/12 11:33:32;;;;;;;6.37;3.10;;;;;;;24.65;63.64;97528.50;5063148;28;20681;-31
2022/09/12 11:35:59;;;;;;;2.70;2.50;;;;;;;24.64;63.81;97525.06;5060512;28;20237;-32
2022/09/12 11:38:47;;;;;;;2.70;2.50;;;;;;;24.64;64.15;97525.06;5050333;28;20608;-31
2022/09/12 11:41:27;;;;;;;2.50;2.30;;;;;;;24.64;64.05;97524.19;5070024;28;20188;-31
2022/09/12 11:43:59;;;;;;;3.53;2.50;;;;;;;24.63;63.97;97518.16;5054591;28;20200;-32
2022/09/12 11:46:39;;;;;;;2.97;2.77;;;;;;;24.64;63.87;97522.47;5062732;28;20211;-30
2022/09/12 11:49:12;;;;;;;2.80;2.60;;;;;;;24.64;63.79;97519.03;5071495;28;20214;-31
2022/09/12 11:51:44;;;;;;;2.63;2.43;;;;;;;24.64;64.07;97519.91;5059582;28;20212;-31
2022/09/12 11:54:22;;;;;;;2.60;2.40;;;;;;;24.64;63.97;97512.19;5065976;28;20218;-31